createdAt,value
2023-04-11T00:00:26.445Z,21.77
2023-04-11T00:02:59.811Z,22.63
2023-04-11T00:05:33.990Z,20.85
2023-04-11T00:08:01.462Z,20.92
2023-04-11T00:10:28.962Z,22.27
2023-04-11T00:12:56.792Z,20.67
2023-04-11T00:15:24.973Z,22.92
2023-04-11T00:17:53.578Z,20.02
2023-04-11T00:20:21.576Z,20.77
2023-04-11T00:22:49.090Z,18.90
2023-04-11T00:25:16.609Z,17.33
2023-04-11T00:27:44.075Z,20.90
2023-04-11T00:30:11.776Z,19.85
2023-04-11T00:32:39.281Z,17.88
2023-04-11T00:35:08.757Z,17.30
2023-04-11T00:37:36.740Z,17.67
2023-04-11T00:40:05.941Z,17.40
2023-04-11T00:42:33.785Z,18.92
2023-04-11T00:45:01.313Z,17.00
2023-04-11T00:47:28.838Z,20.67
2023-04-11T00:49:56.363Z,17.55
2023-04-11T00:52:24.005Z,16.80
2023-04-11T00:54:52.048Z,18.95
2023-04-11T00:57:19.514Z,16.02
2023-04-11T00:59:48.481Z,16.97
2023-04-11T01:02:18.263Z,19.70
2023-04-11T01:04:45.713Z,14.95
2023-04-11T01:07:13.195Z,15.25
2023-04-11T01:09:40.697Z,18.08
2023-04-11T01:12:08.243Z,20.63
2023-04-11T01:14:35.727Z,17.17
2023-04-11T01:17:03.337Z,18.23
2023-04-11T01:19:30.932Z,18.45
2023-04-11T01:21:58.928Z,15.60
2023-04-11T01:24:26.567Z,18.23
2023-04-11T01:26:54.064Z,19.02
2023-04-11T01:29:21.704Z,18.67
2023-04-11T01:31:49.706Z,18.00
2023-04-11T01:34:17.852Z,19.92
2023-04-11T01:36:45.446Z,17.67
2023-04-11T01:39:12.921Z,15.48
2023-04-11T01:41:40.772Z,15.48
2023-04-11T01:44:08.255Z,17.60
2023-04-11T01:46:36.104Z,17.98
2023-04-11T01:49:03.958Z,19.27
2023-04-11T01:51:32.015Z,17.00
2023-04-11T01:53:59.535Z,21.20
2023-04-11T01:56:26.978Z,20.30
2023-04-11T01:58:55.069Z,21.35
2023-04-11T02:01:22.925Z,21.50
2023-04-11T02:03:50.384Z,18.05
2023-04-11T02:06:17.964Z,19.63
2023-04-11T02:08:45.409Z,18.63
2023-04-11T02:11:12.838Z,19.73
2023-04-11T02:13:40.360Z,22.80
2023-04-11T02:16:15.171Z,20.33
2023-04-11T02:18:45.675Z,22.50
2023-04-11T02:21:13.375Z,19.00
2023-04-11T02:23:40.841Z,21.00
2023-04-11T02:26:08.322Z,21.80
2023-04-11T02:28:36.766Z,20.42
2023-04-11T02:31:04.516Z,21.48
2023-04-11T02:33:32.445Z,21.92
2023-04-11T02:35:59.983Z,19.70
2023-04-11T02:38:27.549Z,23.03
2023-04-11T02:40:54.990Z,19.98
2023-04-11T02:43:22.497Z,17.95
2023-04-11T02:45:51.016Z,20.83
2023-04-11T02:48:22.861Z,17.73
2023-04-11T02:50:50.573Z,18.37
2023-04-11T02:53:18.729Z,21.77
2023-04-11T02:55:46.787Z,19.85
2023-04-11T02:58:17.979Z,19.23
2023-04-11T03:00:45.842Z,18.48
2023-04-11T03:03:13.511Z,18.23
2023-04-11T03:05:41.116Z,20.77
2023-04-11T03:08:09.199Z,16.90
2023-04-11T03:10:36.761Z,18.67
2023-04-11T03:13:04.182Z,18.95
2023-04-11T03:15:32.392Z,19.97
2023-04-11T03:17:59.968Z,20.20
2023-04-11T03:20:27.447Z,19.08
2023-04-11T03:22:54.817Z,17.35
2023-04-11T03:25:22.599Z,19.55
2023-04-11T03:27:50.278Z,16.47
2023-04-11T03:30:17.771Z,17.90
2023-04-11T03:32:45.302Z,20.15
2023-04-11T03:35:14.757Z,19.27
2023-04-11T03:37:42.361Z,20.77
2023-04-11T03:40:10.052Z,22.03
2023-04-11T03:42:37.501Z,24.92
2023-04-11T03:45:05.501Z,21.83
2023-04-11T03:47:32.988Z,23.25
2023-04-11T03:50:01.300Z,22.58
2023-04-11T03:52:28.922Z,26.33
2023-04-11T03:54:56.314Z,22.27
2023-04-11T03:57:26.874Z,27.23
2023-04-11T03:59:54.725Z,24.38
2023-04-11T04:02:22.285Z,25.63
2023-04-11T04:04:58.412Z,26.40
2023-04-11T04:07:26.240Z,23.50
2023-04-11T04:09:53.896Z,23.38
2023-04-11T04:12:21.617Z,26.20
2023-04-11T04:14:49.218Z,24.63
2023-04-11T04:17:17.030Z,23.83
2023-04-11T04:19:44.593Z,24.02
2023-04-11T04:22:13.290Z,23.40
2023-04-11T04:24:42.265Z,26.63
2023-04-11T04:27:09.690Z,23.20
2023-04-11T04:29:46.302Z,29.83
2023-04-11T04:32:20.746Z,23.20
2023-04-11T04:34:55.095Z,21.73
2023-04-11T04:37:23.889Z,22.92
2023-04-11T04:39:54.073Z,21.10
2023-04-11T04:42:22.732Z,19.63
2023-04-11T04:44:50.793Z,24.20
2023-04-11T04:47:18.256Z,21.30
2023-04-11T04:49:46.099Z,17.55
2023-04-11T04:52:23.195Z,20.48
2023-04-11T04:54:50.584Z,22.53
2023-04-11T04:57:18.007Z,23.20
2023-04-11T04:59:45.715Z,23.40
2023-04-11T05:02:13.292Z,20.25
2023-04-11T05:04:42.066Z,20.88
2023-04-11T05:07:09.482Z,19.03
2023-04-11T05:09:39.312Z,18.13
2023-04-11T05:12:07.274Z,17.77
2023-04-11T05:14:34.728Z,20.75
2023-04-11T05:17:02.157Z,16.75
2023-04-11T05:19:29.596Z,18.30
2023-04-11T05:21:57.065Z,16.58
2023-04-11T05:24:24.523Z,16.27
2023-04-11T05:26:52.080Z,16.75
2023-04-11T05:29:20.984Z,15.00
2023-04-11T05:31:48.361Z,16.63
2023-04-11T05:34:15.940Z,14.57
2023-04-11T05:36:43.383Z,26.50
2023-04-11T05:39:10.992Z,21.65
2023-04-11T05:41:38.422Z,17.60
2023-04-11T05:44:06.134Z,27.03
2023-04-11T05:46:36.932Z,22.13
2023-04-11T05:49:04.558Z,29.20
2023-04-11T05:51:32.021Z,28.77
2023-04-11T05:53:59.484Z,29.83
2023-04-11T05:56:26.959Z,27.17
2023-04-11T05:58:54.508Z,30.45
2023-04-11T06:01:22.237Z,39.15
2023-04-11T06:03:49.936Z,35.00
2023-04-11T06:06:17.530Z,48.28
2023-04-11T06:08:45.310Z,58.67
2023-04-11T06:11:13.402Z,54.42
2023-04-11T06:13:40.880Z,46.15
2023-04-11T06:16:08.549Z,50.65
2023-04-11T06:18:36.060Z,61.35
2023-04-11T06:21:03.783Z,66.03
2023-04-11T06:23:31.210Z,49.15
2023-04-11T06:25:58.775Z,52.42
2023-04-11T06:28:26.317Z,46.35
2023-04-11T06:30:54.047Z,43.92
2023-04-11T06:33:21.630Z,40.60
2023-04-11T06:35:49.052Z,38.17
2023-04-11T06:38:16.785Z,44.15
2023-04-11T06:40:44.212Z,34.42
2023-04-11T06:43:11.880Z,36.83
2023-04-11T06:45:39.310Z,33.37
2023-04-11T06:48:07.134Z,32.58
2023-04-11T06:50:34.533Z,29.70
2023-04-11T06:53:02.079Z,29.60
2023-04-11T06:55:29.581Z,30.80
2023-04-11T06:57:56.996Z,28.80
2023-04-11T07:00:24.540Z,30.40
2023-04-11T07:02:52.758Z,64.72
2023-04-11T07:05:20.816Z,30.35
2023-04-11T07:07:48.195Z,28.10
2023-04-11T07:10:15.842Z,24.63
2023-04-11T07:12:43.236Z,26.00
2023-04-11T07:15:11.184Z,30.23
2023-04-11T07:17:38.720Z,37.97
2023-04-11T07:20:09.323Z,69.80
2023-04-11T07:22:37.020Z,30.37
2023-04-11T07:25:07.838Z,23.40
2023-04-11T07:27:36.389Z,20.02
2023-04-11T07:30:04.853Z,17.63
2023-04-11T07:32:32.483Z,20.65
2023-04-11T07:35:00.111Z,19.70
2023-04-11T07:37:27.585Z,23.23
2023-04-11T07:39:55.306Z,17.30
2023-04-11T07:42:22.841Z,18.80
2023-04-11T07:44:50.456Z,20.30
2023-04-11T07:47:17.936Z,23.00
2023-04-11T07:49:45.467Z,18.23
2023-04-11T07:52:14.288Z,19.85
2023-04-11T07:54:43.204Z,18.40
2023-04-11T07:57:10.741Z,34.83
2023-04-11T07:59:38.237Z,20.20
2023-04-11T08:02:08.038Z,22.80
2023-04-11T08:04:38.236Z,21.27
2023-04-11T08:07:06.909Z,16.92
2023-04-11T08:09:34.583Z,19.55
2023-04-11T08:12:02.173Z,21.00
2023-04-11T08:14:29.734Z,19.17
2023-04-11T08:16:57.155Z,17.63
2023-04-11T08:19:24.615Z,15.82
2023-04-11T08:21:52.832Z,18.25
2023-04-11T08:24:20.488Z,16.30
2023-04-11T08:26:47.914Z,22.98
2023-04-11T08:29:15.346Z,20.75
2023-04-11T08:31:44.501Z,18.65
2023-04-11T08:34:12.304Z,19.25
2023-04-11T08:36:39.837Z,18.17
2023-04-11T08:39:07.401Z,16.55
2023-04-11T08:41:34.811Z,20.70
2023-04-11T08:44:02.492Z,21.85
2023-04-11T08:46:30.169Z,16.15
2023-04-11T08:48:57.605Z,19.83
2023-04-11T08:51:26.846Z,18.45
2023-04-11T08:53:54.590Z,17.80
2023-04-11T08:56:22.441Z,19.23
2023-04-11T08:58:49.858Z,18.58
2023-04-11T09:01:32.477Z,18.80
2023-04-11T09:04:05.170Z,19.80
2023-04-11T09:06:33.722Z,19.30
2023-04-11T09:09:01.827Z,15.15
2023-04-11T09:11:29.313Z,17.48
2023-04-11T09:14:07.014Z,16.03
2023-04-11T09:16:35.337Z,18.08
2023-04-11T09:19:02.864Z,16.27
2023-04-11T09:21:31.203Z,17.60
2023-04-11T09:24:17.105Z,16.40
2023-04-11T09:26:46.017Z,15.87
2023-04-11T09:29:14.086Z,18.38
2023-04-11T09:31:45.484Z,18.88
2023-04-11T09:34:13.454Z,17.23
2023-04-11T09:36:41.145Z,14.85
2023-04-11T09:39:20.599Z,16.33
2023-04-11T09:41:48.179Z,16.80
2023-04-11T09:44:15.975Z,14.65
2023-04-11T09:46:59.180Z,16.45
2023-04-11T09:49:27.097Z,13.75
2023-04-11T09:51:54.530Z,12.93
2023-04-11T09:54:24.752Z,16.77
2023-04-11T09:56:52.447Z,14.90
2023-04-11T09:59:19.851Z,17.85
2023-04-11T10:01:47.432Z,18.10
2023-04-11T10:04:14.973Z,17.93
2023-04-11T10:06:45.449Z,17.02
2023-04-11T10:09:13.481Z,17.67
2023-04-11T10:11:42.574Z,16.77
2023-04-11T10:14:10.837Z,17.95
2023-04-11T10:16:38.503Z,16.90
2023-04-11T10:19:06.342Z,17.45
2023-04-11T10:21:33.852Z,16.35
2023-04-11T10:24:08.481Z,15.05
2023-04-11T10:26:54.956Z,15.75
2023-04-11T10:29:34.741Z,15.23
2023-04-11T10:32:11.749Z,16.75
2023-04-11T10:34:59.414Z,16.92
2023-04-11T10:37:36.105Z,26.35
2023-04-11T10:40:06.125Z,18.25
2023-04-11T10:42:34.264Z,20.47
2023-04-11T10:45:19.916Z,19.92
2023-04-11T10:47:59.623Z,17.00
2023-04-11T10:50:27.162Z,23.40
2023-04-11T10:52:55.247Z,17.75
2023-04-11T10:55:22.760Z,24.43
2023-04-11T10:58:09.011Z,20.33
2023-04-11T11:00:45.659Z,21.80
2023-04-11T11:03:16.704Z,21.65
2023-04-11T11:05:44.427Z,17.80
2023-04-11T11:08:11.894Z,19.13
2023-04-11T11:10:40.089Z,18.98
2023-04-11T11:13:07.786Z,21.60
2023-04-11T11:15:38.215Z,23.10
2023-04-11T11:18:07.746Z,30.05
2023-04-11T11:20:36.089Z,27.53
2023-04-11T11:23:12.705Z,24.27
2023-04-11T11:25:40.165Z,20.85
2023-04-11T11:28:08.325Z,21.40
2023-04-11T11:30:36.751Z,22.25
2023-04-11T11:33:20.016Z,20.30
2023-04-11T11:35:57.294Z,20.67
2023-04-11T11:38:28.425Z,23.10
2023-04-11T11:40:55.915Z,26.98
2023-04-11T11:43:23.662Z,26.17
2023-04-11T11:46:17.982Z,27.90
2023-04-11T11:48:58.465Z,36.33
2023-04-11T11:51:26.648Z,39.95
2023-04-11T11:54:09.972Z,31.92
2023-04-11T11:56:37.919Z,28.83
2023-04-11T11:59:05.449Z,27.63
2023-04-11T12:01:33.790Z,25.55
2023-04-11T12:04:02.381Z,25.08
2023-04-11T12:06:31.630Z,29.55
2023-04-11T12:09:08.861Z,26.35
2023-04-11T12:11:37.345Z,25.17
2023-04-11T12:14:04.880Z,22.33
2023-04-11T12:16:32.559Z,30.42
2023-04-11T12:19:01.063Z,26.13
2023-04-11T12:21:28.481Z,17.88
2023-04-11T12:23:56.405Z,24.23
2023-04-11T12:26:25.245Z,20.42
2023-04-11T12:28:52.813Z,17.05
2023-04-11T12:31:21.471Z,19.13
2023-04-11T12:33:49.343Z,21.20
2023-04-11T12:36:16.797Z,18.83
2023-04-11T12:38:44.206Z,20.55
2023-04-11T12:41:31.050Z,20.48
2023-04-11T12:44:02.222Z,22.98
2023-04-11T12:46:29.922Z,22.73
2023-04-11T12:48:57.595Z,21.10
2023-04-11T12:51:25.507Z,19.58
2023-04-11T12:53:53.600Z,20.25
2023-04-11T12:56:21.167Z,19.83
2023-04-11T12:58:48.652Z,22.25
2023-04-11T13:01:16.475Z,18.90
2023-04-11T13:03:44.451Z,18.65
2023-04-11T13:06:12.202Z,19.83
2023-04-11T13:08:39.687Z,20.90
2023-04-11T13:11:07.360Z,18.75
2023-04-11T13:13:34.841Z,18.50
2023-04-11T13:16:02.345Z,15.82
2023-04-11T13:18:30.098Z,16.08
2023-04-11T13:20:57.731Z,16.55
2023-04-11T13:23:25.357Z,15.85
2023-04-11T13:25:52.916Z,17.07
2023-04-11T13:28:21.789Z,13.75
2023-04-11T13:30:49.325Z,14.65
2023-04-11T13:33:16.868Z,19.35
2023-04-11T13:35:44.319Z,21.20
2023-04-11T13:38:12.683Z,19.97
2023-04-11T13:40:42.767Z,18.65
2023-04-11T13:43:11.023Z,18.95
2023-04-11T13:45:38.534Z,19.45
2023-04-11T13:48:06.310Z,16.70
2023-04-11T13:50:34.639Z,16.63
2023-04-11T13:53:02.104Z,15.88
2023-04-11T13:55:29.625Z,17.48
2023-04-11T13:57:57.179Z,22.67
2023-04-11T14:00:24.835Z,24.35
2023-04-11T14:02:52.800Z,24.33
2023-04-11T14:05:20.555Z,24.58
2023-04-11T14:07:48.056Z,27.98
2023-04-11T14:10:17.728Z,29.85
2023-04-11T14:12:45.167Z,28.52
2023-04-11T14:15:12.764Z,29.63
2023-04-11T14:17:40.263Z,33.30
2023-04-11T14:20:09.337Z,32.70
2023-04-11T14:22:37.012Z,25.83
2023-04-11T14:25:05.662Z,36.83
2023-04-11T14:27:33.087Z,26.43
2023-04-11T14:30:00.490Z,39.20
2023-04-11T14:32:28.026Z,28.70
2023-04-11T14:34:55.552Z,19.10
2023-04-11T14:37:22.988Z,18.85
2023-04-11T14:39:52.794Z,17.43
2023-04-11T14:42:20.242Z,18.42
2023-04-11T14:44:50.320Z,13.73
2023-04-11T14:47:17.786Z,22.70
2023-04-11T14:49:45.498Z,15.00
2023-04-11T14:52:13.573Z,11.20
2023-04-11T14:54:41.154Z,7.47
2023-04-11T14:57:08.617Z,9.15
2023-04-11T14:59:36.253Z,15.55
2023-04-11T15:02:03.834Z,8.65
2023-04-11T15:04:31.556Z,6.77
2023-04-11T15:06:59.338Z,18.75
2023-04-11T15:09:27.283Z,5.32
2023-04-11T15:11:54.849Z,16.38
2023-04-11T15:14:29.144Z,16.30
2023-04-11T15:16:57.031Z,15.97
2023-04-11T15:19:24.517Z,22.95
2023-04-11T15:21:51.969Z,20.15
2023-04-11T15:24:19.477Z,9.68
2023-04-11T15:26:47.238Z,6.88
2023-04-11T15:29:15.798Z,11.10
2023-04-11T15:31:43.325Z,6.22
2023-04-11T15:34:13.879Z,7.40
2023-04-11T15:36:42.562Z,10.30
2023-04-11T15:39:10.037Z,5.13
2023-04-11T15:41:37.492Z,3.73
2023-04-11T15:44:04.984Z,3.70
2023-04-11T15:46:32.560Z,3.83
2023-04-11T15:49:00.172Z,5.65
2023-04-11T15:51:27.566Z,7.05
2023-04-11T15:53:55.454Z,6.40
2023-04-11T15:56:23.026Z,4.13
2023-04-11T15:58:50.506Z,3.47
2023-04-11T16:01:22.947Z,5.75
2023-04-11T16:03:51.682Z,4.50
2023-04-11T16:06:20.061Z,5.47
2023-04-11T16:08:47.595Z,5.38
2023-04-11T16:11:15.123Z,9.52
2023-04-11T16:13:44.160Z,10.20
2023-04-11T16:16:11.654Z,4.80
2023-04-11T16:18:39.165Z,5.23
2023-04-11T16:21:16.067Z,7.43
2023-04-11T16:23:43.717Z,5.88
2023-04-11T16:26:11.238Z,7.43
2023-04-11T16:28:38.747Z,4.72
2023-04-11T16:31:06.338Z,5.40
2023-04-11T16:33:33.830Z,3.33
2023-04-11T16:36:01.563Z,3.20
2023-04-11T16:38:29.120Z,6.05
2023-04-11T16:40:56.660Z,10.05
2023-04-11T16:43:24.167Z,14.07
2023-04-11T16:45:51.780Z,11.05
2023-04-11T16:48:19.293Z,7.88
2023-04-11T16:50:46.773Z,7.93
2023-04-11T16:53:14.255Z,6.53
2023-04-11T16:55:41.711Z,6.37
2023-04-11T16:58:10.360Z,5.60
2023-04-11T17:00:38.157Z,16.73
2023-04-11T17:03:05.857Z,5.45
2023-04-11T17:05:36.697Z,10.10
2023-04-11T17:08:04.244Z,3.70
2023-04-11T17:10:32.053Z,7.25
2023-04-11T17:12:59.529Z,7.97
2023-04-11T17:15:27.145Z,10.48
2023-04-11T17:17:54.665Z,5.72
2023-04-11T17:20:22.559Z,10.73
2023-04-11T17:22:50.099Z,6.68
2023-04-11T17:25:17.740Z,16.92
2023-04-11T17:27:45.373Z,28.73
2023-04-11T17:30:13.013Z,19.40
2023-04-11T17:32:41.042Z,8.07
2023-04-11T17:35:08.804Z,17.17
2023-04-11T17:37:36.291Z,10.70
2023-04-11T17:40:09.819Z,5.28
2023-04-11T17:42:37.333Z,29.90
2023-04-11T17:45:16.604Z,5.63
2023-04-11T17:47:45.034Z,16.02
2023-04-11T17:50:13.130Z,4.50
2023-04-11T17:52:41.770Z,8.80
2023-04-11T17:55:10.428Z,9.63
2023-04-11T17:57:38.726Z,9.87
2023-04-11T18:00:19.926Z,5.30
2023-04-11T18:02:48.107Z,13.65
2023-04-11T18:05:23.077Z,12.07
2023-04-11T18:07:52.470Z,10.00
2023-04-11T18:10:20.109Z,3.67
2023-04-11T18:12:48.269Z,8.88
2023-04-11T18:15:16.064Z,6.47
2023-04-11T18:17:46.475Z,7.93
2023-04-11T18:20:14.499Z,8.90
2023-04-11T18:22:42.906Z,4.37
2023-04-11T18:25:10.469Z,8.70
2023-04-11T18:27:38.293Z,7.50
2023-04-11T18:30:07.382Z,10.77
2023-04-11T18:32:40.365Z,18.92
2023-04-11T18:35:11.796Z,21.53
2023-04-11T18:37:40.563Z,12.80
2023-04-11T18:40:11.821Z,9.35
2023-04-11T18:42:39.824Z,3.55
2023-04-11T18:45:07.455Z,12.23
2023-04-11T18:47:35.186Z,10.33
2023-04-11T18:50:04.455Z,4.60
2023-04-11T18:52:36.585Z,6.63
2023-04-11T18:55:04.035Z,6.20
2023-04-11T18:57:34.388Z,6.22
2023-04-11T19:00:13.299Z,5.87
2023-04-11T19:02:46.030Z,8.18
2023-04-11T19:05:14.446Z,7.28
2023-04-11T19:07:45.861Z,4.95
2023-04-11T19:10:13.724Z,11.52
2023-04-11T19:12:41.327Z,9.50
2023-04-11T19:15:09.448Z,7.43
2023-04-11T19:17:38.312Z,7.72
2023-04-11T19:20:13.260Z,6.32
2023-04-11T19:22:41.325Z,11.63
2023-04-11T19:25:13.404Z,11.97
2023-04-11T19:27:42.488Z,8.00
2023-04-11T19:30:11.229Z,6.75
2023-04-11T19:32:40.973Z,3.67
2023-04-11T19:35:12.030Z,3.13
2023-04-11T19:37:39.861Z,2.57
2023-04-11T19:40:07.833Z,4.05
2023-04-11T19:42:37.285Z,5.43
2023-04-11T19:45:06.320Z,4.25
2023-04-11T19:47:34.111Z,8.95
2023-04-11T19:50:02.467Z,7.87
2023-04-11T19:52:30.195Z,3.95
2023-04-11T19:54:57.909Z,5.82
2023-04-11T19:57:28.980Z,3.22
2023-04-11T19:59:56.988Z,2.55
2023-04-11T20:02:26.339Z,2.40
2023-04-11T20:04:56.208Z,2.97
2023-04-11T20:07:23.923Z,3.03
2023-04-11T20:09:51.820Z,2.70
2023-04-11T20:12:19.543Z,6.43
2023-04-11T20:14:47.236Z,8.33
2023-04-11T20:17:14.641Z,11.93
2023-04-11T20:19:44.084Z,5.63
2023-04-11T20:22:17.316Z,5.68
2023-04-11T20:24:46.600Z,3.83
2023-04-11T20:27:14.170Z,5.27
2023-04-11T20:29:42.494Z,3.17
2023-04-11T20:32:10.019Z,3.55
2023-04-11T20:34:37.458Z,3.55
2023-04-11T20:37:06.296Z,2.55
2023-04-11T20:39:33.984Z,5.83
2023-04-11T20:42:01.504Z,4.05
2023-04-11T20:44:29.098Z,12.13
2023-04-11T20:46:57.191Z,4.95
2023-04-11T20:49:27.937Z,4.45
2023-04-11T20:51:55.857Z,4.00
2023-04-11T20:54:23.284Z,2.38
2023-04-11T20:56:52.412Z,3.65
2023-04-11T20:59:19.819Z,12.13
2023-04-11T21:01:47.397Z,13.50
2023-04-11T21:04:17.731Z,3.63
2023-04-11T21:06:45.981Z,3.53
2023-04-11T21:09:14.094Z,4.30
2023-04-11T21:11:41.496Z,2.55
2023-04-11T21:14:09.104Z,6.95
2023-04-11T21:16:36.579Z,7.53
2023-04-11T21:19:03.987Z,5.72
2023-04-11T21:21:31.423Z,3.00
2023-04-11T21:23:59.134Z,2.45
2023-04-11T21:26:27.214Z,7.65
2023-04-11T21:28:54.680Z,3.73
2023-04-11T21:31:22.184Z,2.72
2023-04-11T21:33:49.734Z,3.55
2023-04-11T21:36:17.255Z,2.33
2023-04-11T21:38:44.782Z,6.72
2023-04-11T21:41:12.621Z,7.63
2023-04-11T21:43:41.017Z,5.00
2023-04-11T21:46:08.507Z,4.32
2023-04-11T21:48:36.212Z,4.40
2023-04-11T21:51:03.876Z,5.97
2023-04-11T21:53:31.507Z,5.53
2023-04-11T21:55:58.997Z,3.83
2023-04-11T21:58:29.827Z,4.43
2023-04-11T22:00:57.648Z,3.85
2023-04-11T22:03:26.708Z,2.10
2023-04-11T22:05:54.372Z,2.67
2023-04-11T22:08:22.727Z,2.38
2023-04-11T22:10:50.811Z,2.08
2023-04-11T22:13:19.169Z,2.38
2023-04-11T22:15:46.710Z,1.63
2023-04-11T22:18:14.197Z,2.13
2023-04-11T22:20:44.086Z,2.47
2023-04-11T22:23:12.811Z,2.42
2023-04-11T22:25:42.687Z,3.17
2023-04-11T22:28:20.473Z,1.70
2023-04-11T22:30:47.919Z,1.90
2023-04-11T22:33:15.513Z,1.85
2023-04-11T22:35:47.648Z,2.58
2023-04-11T22:38:15.995Z,4.13
2023-04-11T22:40:43.516Z,4.55
2023-04-11T22:43:12.308Z,4.10
2023-04-11T22:45:40.153Z,3.13
2023-04-11T22:48:07.768Z,2.95
2023-04-11T22:50:39.006Z,2.10
2023-04-11T22:53:09.327Z,2.08
2023-04-11T22:55:36.834Z,3.10
2023-04-11T22:58:04.214Z,2.53
2023-04-11T23:00:38.221Z,4.38
2023-04-11T23:03:07.331Z,1.88
2023-04-11T23:05:35.345Z,2.55
2023-04-11T23:08:02.802Z,2.13
2023-04-11T23:10:30.256Z,3.22
2023-04-11T23:12:57.991Z,1.75
2023-04-11T23:15:25.485Z,3.38
2023-04-11T23:17:53.288Z,2.10
2023-04-11T23:20:22.187Z,2.17
2023-04-11T23:22:49.700Z,1.90
2023-04-11T23:25:17.341Z,7.70
2023-04-11T23:27:45.240Z,2.22
2023-04-11T23:30:14.968Z,3.42
2023-04-11T23:32:43.031Z,2.33
2023-04-11T23:35:10.959Z,2.08
2023-04-11T23:37:38.440Z,2.13
2023-04-11T23:40:09.982Z,2.85
2023-04-11T23:42:38.397Z,3.13
2023-04-11T23:45:07.233Z,1.43
2023-04-11T23:47:35.077Z,1.67
2023-04-11T23:50:03.185Z,1.63
2023-04-11T23:52:31.164Z,2.55
2023-04-11T23:54:58.614Z,2.75
2023-04-11T23:57:26.465Z,2.83
2023-04-11T23:59:53.833Z,4.47
